createdAt,value
2023-01-17T00:01:55.056Z,0.30
2023-01-17T00:04:40.167Z,0.30
2023-01-17T00:07:25.317Z,0.30
2023-01-17T00:09:54.376Z,0.30
2023-01-17T00:12:21.201Z,0.38
2023-01-17T00:14:47.920Z,0.20
2023-01-17T00:17:14.413Z,0.20
2023-01-17T00:19:59.563Z,0.22
2023-01-17T00:22:49.080Z,0.30
2023-01-17T00:25:35.416Z,0.20
2023-01-17T00:28:02.034Z,0.20
2023-01-17T00:30:28.592Z,0.10
2023-01-17T00:32:55.148Z,0.20
2023-01-17T00:35:24.911Z,0.17
2023-01-17T00:38:20.496Z,0.13
2023-01-17T00:40:47.070Z,0.20
2023-01-17T00:43:33.273Z,0.20
2023-01-17T00:46:18.006Z,0.10
2023-01-17T00:49:03.343Z,0.10
2023-01-17T01:05:34.888Z,0.20
2023-01-17T01:08:20.194Z,0.20
2023-01-17T01:11:06.687Z,0.30
2023-01-17T01:13:51.705Z,0.20
2023-01-17T01:16:37.654Z,0.20
2023-01-17T01:19:23.931Z,0.10
2023-01-17T01:22:08.974Z,0.20
2023-01-17T01:24:53.806Z,0.20
2023-01-17T01:27:38.664Z,0.17
2023-01-17T01:30:23.732Z,0.20
2023-01-17T01:33:08.551Z,0.20
2023-01-17T01:35:36.404Z,0.20
2023-01-17T01:38:03.403Z,0.20
2023-01-17T01:40:30.057Z,0.20
2023-01-17T01:42:57.687Z,0.30
2023-01-17T01:45:25.812Z,0.22
2023-01-17T01:47:55.223Z,0.20
2023-01-17T01:50:22.112Z,0.20
2023-01-17T01:52:52.315Z,0.20
2023-01-17T01:55:18.877Z,0.20
2023-01-17T01:57:47.334Z,0.30
2023-01-17T02:00:16.531Z,0.30
2023-01-17T02:02:45.033Z,0.40
2023-01-17T02:05:13.163Z,0.25
2023-01-17T02:07:43.779Z,0.40
2023-01-17T02:10:10.693Z,0.40
2023-01-17T02:12:37.386Z,0.40
2023-01-17T02:15:05.704Z,0.20
2023-01-17T02:17:35.459Z,0.30
2023-01-17T02:20:20.405Z,0.50
2023-01-17T02:22:58.833Z,0.20
2023-01-17T02:25:31.282Z,0.40
2023-01-17T02:28:16.437Z,0.30
2023-01-17T02:30:46.113Z,0.38
2023-01-17T02:33:19.526Z,0.35
2023-01-17T02:35:45.873Z,0.38
2023-01-17T02:38:12.384Z,0.38
2023-01-17T02:40:44.806Z,0.30
2023-01-17T02:43:14.178Z,0.38
2023-01-17T02:45:40.654Z,0.50
2023-01-17T02:48:08.306Z,0.40
2023-01-17T02:50:42.583Z,0.43
2023-01-17T02:53:09.010Z,0.60
2023-01-17T02:55:38.500Z,0.38
2023-01-17T02:58:31.244Z,0.45
2023-01-17T03:01:10.197Z,0.60
2023-01-17T03:03:55.351Z,0.60
2023-01-17T03:06:25.489Z,0.60
2023-01-17T03:08:52.440Z,0.45
2023-01-17T03:11:19.190Z,0.50
2023-01-17T03:13:45.614Z,1.10
2023-01-17T03:16:14.939Z,0.75
2023-01-17T03:18:42.010Z,0.70
2023-01-17T03:21:08.430Z,0.70
2023-01-17T03:23:34.787Z,0.80
2023-01-17T03:26:01.341Z,0.82
2023-01-17T03:28:28.923Z,0.68
2023-01-17T03:30:55.372Z,0.85
2023-01-17T03:33:22.119Z,1.17
2023-01-17T03:35:48.467Z,0.60
2023-01-17T03:38:15.239Z,0.98
2023-01-17T03:40:41.935Z,0.80
2023-01-17T03:43:08.465Z,0.82
2023-01-17T03:45:35.157Z,0.90
2023-01-17T03:48:01.791Z,0.77
2023-01-17T03:50:28.222Z,1.10
2023-01-17T03:52:54.658Z,0.90
2023-01-17T03:55:21.082Z,1.00
2023-01-17T03:57:47.456Z,1.02
2023-01-17T04:00:14.146Z,0.80
2023-01-17T04:02:40.718Z,1.05
2023-01-17T04:05:07.316Z,0.80
2023-01-17T04:07:33.835Z,0.90
2023-01-17T04:10:00.490Z,1.00
2023-01-17T04:12:27.184Z,1.00
2023-01-17T04:14:53.716Z,0.88
2023-01-17T04:17:20.471Z,0.90
2023-01-17T04:19:47.198Z,0.90
2023-01-17T04:22:18.567Z,1.00
2023-01-17T04:24:45.521Z,0.93
2023-01-17T04:27:15.006Z,1.00
2023-01-17T04:29:41.495Z,0.98
2023-01-17T04:32:08.408Z,0.90
2023-01-17T04:34:35.067Z,0.90
2023-01-17T04:37:01.600Z,1.00
2023-01-17T04:39:28.061Z,0.98
2023-01-17T04:41:54.901Z,1.05
2023-01-17T04:44:21.262Z,1.00
2023-01-17T04:46:47.855Z,1.20
2023-01-17T04:49:14.310Z,1.10
2023-01-17T04:51:40.738Z,0.90
2023-01-17T04:54:07.339Z,1.05
2023-01-17T04:56:33.793Z,1.20
2023-01-17T04:59:00.244Z,0.90
2023-01-17T05:01:27.099Z,1.08
2023-01-17T05:03:56.552Z,1.30
2023-01-17T05:06:24.202Z,0.88
2023-01-17T05:08:50.626Z,1.08
2023-01-17T05:11:17.990Z,1.17
2023-01-17T05:13:44.386Z,0.80
2023-01-17T05:16:10.814Z,1.05
2023-01-17T05:18:37.691Z,1.10
2023-01-17T05:21:04.200Z,1.00
2023-01-17T05:23:30.699Z,1.25
2023-01-17T05:25:57.133Z,0.98
2023-01-17T05:28:23.563Z,1.23
2023-01-17T05:30:50.065Z,1.30
2023-01-17T05:33:16.496Z,0.95
2023-01-17T05:35:42.916Z,1.05
2023-01-17T05:38:09.308Z,1.05
2023-01-17T05:40:35.785Z,1.08
2023-01-17T05:43:03.845Z,1.15
2023-01-17T05:45:30.738Z,1.10
2023-01-17T05:47:58.291Z,1.10
2023-01-17T05:50:27.707Z,1.35
2023-01-17T05:52:55.662Z,1.20
2023-01-17T05:55:22.733Z,1.30
2023-01-17T05:57:49.700Z,1.20
2023-01-17T06:00:17.039Z,1.30
2023-01-17T06:02:43.928Z,1.30
2023-01-17T06:05:10.472Z,1.20
2023-01-17T06:07:36.987Z,1.15
2023-01-17T06:10:03.739Z,1.15
2023-01-17T06:12:30.173Z,1.30
2023-01-17T06:14:56.628Z,1.02
2023-01-17T06:17:23.185Z,1.05
2023-01-17T06:19:49.675Z,1.00
2023-01-17T06:22:16.245Z,1.05
2023-01-17T06:24:43.888Z,1.10
2023-01-17T06:27:10.721Z,1.08
2023-01-17T06:29:37.115Z,1.10
2023-01-17T06:32:03.625Z,1.05
2023-01-17T06:34:30.075Z,1.00
2023-01-17T06:36:56.851Z,1.08
2023-01-17T06:39:23.291Z,1.08
2023-01-17T06:41:49.682Z,1.25
2023-01-17T06:44:16.178Z,1.10
2023-01-17T06:46:43.403Z,1.42
2023-01-17T06:49:09.847Z,1.58
2023-01-17T06:51:36.273Z,1.40
2023-01-17T06:54:02.640Z,1.30
2023-01-17T06:56:30.996Z,1.70
2023-01-17T06:58:57.557Z,1.60
2023-01-17T07:01:23.995Z,1.40
2023-01-17T07:03:52.428Z,1.30
2023-01-17T07:06:19.073Z,1.20
2023-01-17T07:08:45.481Z,2.17
2023-01-17T07:11:11.858Z,1.20
2023-01-17T07:13:38.393Z,1.30
2023-01-17T07:16:05.384Z,1.10
2023-01-17T07:18:32.501Z,1.35
2023-01-17T07:20:58.849Z,1.30
2023-01-17T07:23:25.237Z,1.60
2023-01-17T07:25:52.555Z,1.33
2023-01-17T07:28:19.062Z,1.35
2023-01-17T07:30:45.601Z,1.30
2023-01-17T07:33:12.036Z,1.27
2023-01-17T07:35:38.469Z,1.20
2023-01-17T07:38:13.894Z,1.13
2023-01-17T07:43:15.217Z,1.27
2023-01-17T07:45:45.741Z,1.60
2023-01-17T07:48:12.223Z,1.30
2023-01-17T07:50:38.909Z,1.10
2023-01-17T07:53:05.443Z,1.33
2023-01-17T07:55:31.937Z,1.35
2023-01-17T07:57:58.317Z,1.40
2023-01-17T08:00:27.574Z,1.38
2023-01-17T08:02:57.912Z,1.30
2023-01-17T08:05:24.488Z,1.25
2023-01-17T08:07:51.354Z,1.23
2023-01-17T08:10:18.169Z,1.70
2023-01-17T08:12:48.550Z,1.63
2023-01-17T08:15:15.560Z,1.17
2023-01-17T08:17:48.504Z,1.30
2023-01-17T08:20:18.785Z,1.10
2023-01-17T08:22:45.322Z,1.60
2023-01-17T08:25:12.575Z,1.30
2023-01-17T08:27:39.139Z,1.30
2023-01-17T08:30:06.702Z,1.20
2023-01-17T08:32:33.436Z,1.30
2023-01-17T08:34:59.837Z,1.33
2023-01-17T08:37:26.274Z,1.13
2023-01-17T08:39:52.673Z,1.00
2023-01-17T08:42:19.070Z,0.95
2023-01-17T08:44:45.467Z,0.95
2023-01-17T08:47:11.850Z,1.10
2023-01-17T08:49:38.378Z,1.05
2023-01-17T08:52:05.380Z,1.17
2023-01-17T08:54:31.801Z,1.30
2023-01-17T08:56:58.250Z,1.05
2023-01-17T08:59:24.640Z,1.65
2023-01-17T09:01:52.475Z,1.30
2023-01-17T09:04:19.302Z,1.20
2023-01-17T09:06:47.318Z,0.90
2023-01-17T09:09:13.844Z,1.27
2023-01-17T09:11:40.294Z,1.08
2023-01-17T09:14:06.664Z,1.15
2023-01-17T09:16:33.178Z,1.23
2023-01-17T09:19:00.041Z,1.05
2023-01-17T09:21:26.656Z,0.82
2023-01-17T09:23:53.431Z,0.90
2023-01-17T09:26:24.246Z,0.98
2023-01-17T09:28:51.087Z,0.95
2023-01-17T09:31:18.085Z,0.95
2023-01-17T09:33:44.572Z,1.00
2023-01-17T09:36:11.573Z,0.80
2023-01-17T09:38:38.018Z,0.95
2023-01-17T09:41:17.800Z,1.00
2023-01-17T09:43:52.896Z,1.10
2023-01-17T09:46:24.197Z,0.70
2023-01-17T09:48:55.266Z,1.00
2023-01-17T09:51:23.130Z,0.93
2023-01-17T09:53:50.305Z,0.93
2023-01-17T09:56:23.226Z,1.00
2023-01-17T09:58:58.044Z,0.80
2023-01-17T10:01:29.811Z,0.88
2023-01-17T10:04:15.469Z,1.05
2023-01-17T10:06:44.641Z,1.13
2023-01-17T10:09:20.262Z,0.90
2023-01-17T10:12:05.316Z,1.00
2023-01-17T10:14:34.384Z,0.70
2023-01-17T10:17:06.969Z,0.60
2023-01-17T10:19:39.979Z,0.93
2023-01-17T10:22:18.356Z,0.70
2023-01-17T10:24:51.970Z,1.00
2023-01-17T10:27:38.627Z,0.82
2023-01-17T10:30:17.304Z,0.80
2023-01-17T10:32:47.412Z,0.90
2023-01-17T10:35:21.708Z,1.00
2023-01-17T10:37:49.059Z,0.93
2023-01-17T10:40:35.777Z,0.70
2023-01-17T10:43:12.109Z,1.00
2023-01-17T10:45:45.092Z,1.00
2023-01-17T10:48:14.917Z,0.98
2023-01-17T10:50:47.915Z,0.75
2023-01-17T10:53:31.105Z,0.85
2023-01-17T10:55:58.033Z,0.70
2023-01-17T10:58:26.407Z,0.88
2023-01-17T11:00:58.145Z,0.90
2023-01-17T11:03:25.540Z,0.70
2023-01-17T11:06:14.939Z,0.82
2023-01-17T11:09:10.700Z,1.10
2023-01-17T11:11:44.391Z,1.15
2023-01-17T11:14:22.207Z,0.90
2023-01-17T11:16:59.667Z,0.80
2023-01-17T11:19:31.447Z,1.23
2023-01-17T11:22:01.594Z,0.98
2023-01-17T11:24:39.945Z,1.20
2023-01-17T11:27:07.442Z,0.80
2023-01-17T11:29:36.911Z,1.27
2023-01-17T11:32:32.620Z,1.10
2023-01-17T11:35:04.824Z,1.00
2023-01-17T11:37:31.238Z,1.30
2023-01-17T11:40:18.807Z,0.90
2023-01-17T11:42:45.221Z,0.90
2023-01-17T11:45:24.993Z,1.02
2023-01-17T11:48:12.892Z,1.20
2023-01-17T11:50:59.564Z,1.00
2023-01-17T11:53:28.006Z,1.02
2023-01-17T11:56:13.270Z,0.98
2023-01-17T11:58:43.195Z,1.00
2023-01-17T12:01:28.590Z,1.00
2023-01-17T12:03:55.004Z,0.90
2023-01-17T12:06:30.446Z,1.20
2023-01-17T12:08:59.965Z,1.00
2023-01-17T12:11:29.277Z,0.70
2023-01-17T12:14:01.782Z,1.08
2023-01-17T12:16:37.924Z,0.90
2023-01-17T12:19:13.537Z,1.00
2023-01-17T12:22:05.343Z,0.90
2023-01-17T12:24:31.740Z,1.00
2023-01-17T12:27:16.804Z,0.90
2023-01-17T12:29:52.229Z,1.00
2023-01-17T12:32:18.610Z,1.10
2023-01-17T12:34:53.510Z,1.20
2023-01-17T12:37:19.960Z,0.88
2023-01-17T12:39:54.928Z,0.93
2023-01-17T12:42:24.254Z,0.93
2023-01-17T12:45:13.782Z,1.05
2023-01-17T12:47:45.388Z,0.90
2023-01-17T12:50:34.124Z,0.90
2023-01-17T12:53:26.704Z,0.90
2023-01-17T12:56:07.145Z,0.90
2023-01-17T12:58:41.238Z,0.80
2023-01-17T13:01:14.414Z,0.80
2023-01-17T13:03:57.720Z,0.90
2023-01-17T13:11:41.130Z,1.10
2023-01-17T13:14:10.685Z,0.90
2023-01-17T13:16:42.922Z,1.00
2023-01-17T13:19:15.862Z,0.88
2023-01-17T13:21:42.615Z,0.93
2023-01-17T13:24:25.948Z,0.65
2023-01-17T13:26:55.618Z,0.80
2023-01-17T13:29:37.564Z,0.88
2023-01-17T13:32:09.785Z,0.82
2023-01-17T13:34:43.643Z,0.80
2023-01-17T13:37:16.619Z,0.80
2023-01-17T13:39:46.152Z,1.20
2023-01-17T13:42:30.801Z,0.80
2023-01-17T13:44:58.101Z,0.80
2023-01-17T13:47:27.585Z,0.65
2023-01-17T13:49:57.576Z,0.93
2023-01-17T13:52:23.951Z,1.20
2023-01-17T13:54:51.440Z,1.00
2023-01-17T13:57:29.561Z,0.88
2023-01-17T13:59:57.415Z,0.80
2023-01-17T14:02:32.704Z,0.95
2023-01-17T14:05:08.146Z,1.13
2023-01-17T14:10:01.197Z,1.00
2023-01-17T14:12:31.423Z,1.20
2023-01-17T14:15:00.698Z,1.00
2023-01-17T14:17:37.268Z,1.15
2023-01-17T14:20:09.424Z,1.08
2023-01-17T14:22:37.733Z,1.40
2023-01-17T14:25:17.524Z,1.10
2023-01-17T14:27:51.801Z,0.70
2023-01-17T14:30:24.136Z,0.90
2023-01-17T14:33:00.917Z,1.33
2023-01-17T14:35:31.798Z,1.10
2023-01-17T14:37:59.761Z,1.20
2023-01-17T14:40:30.502Z,1.50
2023-01-17T14:43:03.031Z,1.60
2023-01-17T14:45:31.113Z,1.10
2023-01-17T14:47:58.775Z,0.82
2023-01-17T14:50:27.255Z,1.10
2023-01-17T14:53:12.001Z,0.73
2023-01-17T14:55:48.652Z,0.90
2023-01-17T14:58:16.333Z,1.30
2023-01-17T15:00:42.717Z,1.05
2023-01-17T15:03:11.233Z,0.85
2023-01-17T15:05:40.160Z,1.00
2023-01-17T15:08:10.517Z,1.10
2023-01-17T15:10:43.675Z,1.00
2023-01-17T15:13:10.703Z,1.25
2023-01-17T15:15:39.637Z,1.30
2023-01-17T15:18:09.742Z,1.50
2023-01-17T15:20:37.432Z,1.30
2023-01-17T15:23:03.985Z,1.00
2023-01-17T15:25:30.684Z,1.08
2023-01-17T15:27:57.213Z,1.30
2023-01-17T15:30:25.263Z,0.90
2023-01-17T15:32:52.571Z,1.27
2023-01-17T15:35:19.399Z,1.50
2023-01-17T15:37:51.166Z,1.40
2023-01-17T15:40:21.677Z,1.15
2023-01-17T15:42:56.732Z,1.50
2023-01-17T15:45:27.040Z,1.10
2023-01-17T15:47:53.454Z,1.35
2023-01-17T15:50:19.831Z,1.30
2023-01-17T15:52:49.969Z,1.48
2023-01-17T15:55:22.462Z,1.13
2023-01-17T15:57:49.313Z,1.42
2023-01-17T16:00:15.906Z,1.30
2023-01-17T16:02:43.410Z,1.30
2023-01-17T16:05:22.365Z,1.20
2023-01-17T16:07:52.991Z,1.90
2023-01-17T16:10:31.699Z,2.40
2023-01-17T16:12:58.602Z,2.20
2023-01-17T16:15:26.483Z,2.60
2023-01-17T16:17:55.465Z,5.60
2023-01-17T16:20:23.146Z,4.18
2023-01-17T16:22:50.196Z,6.50
2023-01-17T16:25:18.002Z,3.55
2023-01-17T16:27:44.402Z,3.63
2023-01-17T16:30:11.820Z,4.35
2023-01-17T16:32:38.193Z,4.05
2023-01-17T16:35:06.379Z,4.57
2023-01-17T16:37:32.877Z,4.00
2023-01-17T16:39:59.196Z,5.07
2023-01-17T16:42:28.397Z,6.03
2023-01-17T16:44:55.028Z,5.85
2023-01-17T16:47:21.877Z,8.35
2023-01-17T16:49:48.214Z,5.45
2023-01-17T16:52:14.609Z,6.00
2023-01-17T16:54:41.041Z,4.00
2023-01-17T16:57:07.489Z,4.65
2023-01-17T16:59:49.656Z,5.88
2023-01-17T17:02:18.628Z,5.18
2023-01-17T17:04:45.101Z,5.88
2023-01-17T17:07:11.529Z,6.85
2023-01-17T17:09:37.991Z,6.88
2023-01-17T17:12:05.089Z,6.95
2023-01-17T17:14:31.467Z,8.48
2023-01-17T17:16:57.912Z,8.02
2023-01-17T17:19:24.280Z,8.05
2023-01-17T17:21:50.667Z,8.02
2023-01-17T17:24:17.456Z,8.55
2023-01-17T17:26:44.621Z,8.93
2023-01-17T17:29:12.170Z,9.18
2023-01-17T17:31:39.904Z,7.28
2023-01-17T17:34:07.342Z,6.72
2023-01-17T17:36:34.419Z,4.47
2023-01-17T17:39:02.145Z,3.55
2023-01-17T17:41:29.903Z,2.83
2023-01-17T17:43:56.700Z,2.75
2023-01-17T17:46:24.351Z,2.47
2023-01-17T17:48:50.961Z,2.92
2023-01-17T17:51:22.316Z,11.27
2023-01-17T17:53:48.761Z,11.63
2023-01-17T17:56:15.257Z,16.20
2023-01-17T17:58:41.965Z,14.85
2023-01-17T18:01:08.441Z,14.73
2023-01-17T18:03:34.918Z,13.68
2023-01-17T18:06:02.251Z,14.00
2023-01-17T18:08:33.521Z,11.90
2023-01-17T18:11:02.305Z,13.30
2023-01-17T18:13:29.652Z,13.63
2023-01-17T18:16:03.915Z,11.10
2023-01-17T18:18:31.292Z,5.68
2023-01-17T18:21:12.942Z,6.15
2023-01-17T18:23:40.042Z,6.82
2023-01-17T18:26:07.167Z,8.50
2023-01-17T18:28:33.631Z,10.48
2023-01-17T18:31:04.399Z,14.38
2023-01-17T18:33:30.805Z,17.27
2023-01-17T18:36:00.001Z,16.33
2023-01-17T18:38:28.794Z,17.65
2023-01-17T18:40:55.124Z,19.10
2023-01-17T18:43:21.512Z,18.70
2023-01-17T18:45:54.118Z,17.60
2023-01-17T18:48:20.471Z,14.52
2023-01-17T18:50:54.746Z,17.40
2023-01-17T18:53:21.106Z,17.10
2023-01-17T18:55:56.982Z,16.05
2023-01-17T18:58:24.060Z,16.80
2023-01-17T19:00:51.434Z,13.90
2023-01-17T19:03:21.389Z,15.85
2023-01-17T19:05:48.359Z,20.52
2023-01-17T19:08:15.685Z,21.95
2023-01-17T19:10:42.432Z,23.40
2023-01-17T19:13:08.979Z,28.05
2023-01-17T19:15:36.215Z,17.52
2023-01-17T19:18:03.382Z,12.77
2023-01-17T19:20:29.987Z,13.43
2023-01-17T19:22:56.409Z,14.80
2023-01-17T19:25:25.443Z,17.73
2023-01-17T19:27:52.683Z,18.13
2023-01-17T19:30:19.818Z,18.00
2023-01-17T19:32:48.666Z,20.58
2023-01-17T19:35:16.069Z,21.27
2023-01-17T19:37:46.487Z,24.67
2023-01-17T19:40:16.793Z,19.63
2023-01-17T19:42:43.238Z,18.25
2023-01-17T19:45:10.815Z,23.48
2023-01-17T19:47:41.469Z,30.83
2023-01-17T19:50:12.154Z,33.08
2023-01-17T19:52:42.462Z,26.60
2023-01-17T19:55:09.872Z,20.38
2023-01-17T19:57:38.683Z,22.30
2023-01-17T20:00:06.420Z,21.77
2023-01-17T20:02:35.894Z,12.77
2023-01-17T20:05:02.441Z,10.48
2023-01-17T20:07:31.048Z,12.63
2023-01-17T20:09:59.066Z,11.73
2023-01-17T20:12:25.510Z,11.48
2023-01-17T20:14:54.148Z,11.88
2023-01-17T20:17:21.151Z,12.40
2023-01-17T20:19:47.648Z,15.55
2023-01-17T20:22:21.739Z,17.27
2023-01-17T20:24:48.237Z,18.30
2023-01-17T20:27:14.563Z,16.00
2023-01-17T20:29:41.033Z,14.15
2023-01-17T20:32:07.862Z,13.18
2023-01-17T20:34:34.224Z,12.02
2023-01-17T20:37:00.635Z,12.15
2023-01-17T20:39:27.167Z,12.38
2023-01-17T20:41:53.526Z,12.88
2023-01-17T20:44:20.023Z,12.68
2023-01-17T20:46:47.800Z,13.63
2023-01-17T20:49:15.974Z,13.20
2023-01-17T20:51:44.136Z,12.38
2023-01-17T20:54:12.960Z,12.05
2023-01-17T20:56:39.371Z,12.50
2023-01-17T20:59:07.639Z,12.93
2023-01-17T21:01:34.991Z,13.38
2023-01-17T21:04:01.775Z,11.65
2023-01-17T21:06:28.156Z,12.77
2023-01-17T21:08:54.797Z,12.40
2023-01-17T21:11:22.963Z,13.45
2023-01-17T21:13:49.829Z,13.10
2023-01-17T21:16:17.901Z,14.30
2023-01-17T21:18:48.018Z,12.27
2023-01-17T21:21:15.481Z,12.63
2023-01-17T21:23:42.258Z,12.25
2023-01-17T21:26:11.966Z,13.20
2023-01-17T21:28:39.533Z,13.80
2023-01-17T21:31:19.500Z,12.38
2023-01-17T21:33:46.500Z,12.13
2023-01-17T21:36:15.048Z,10.80
2023-01-17T21:38:44.648Z,11.38
2023-01-17T21:41:12.044Z,11.20
2023-01-17T21:43:40.915Z,11.32
2023-01-17T21:46:07.500Z,10.55
2023-01-17T21:48:34.154Z,11.43
2023-01-17T21:51:07.230Z,9.63
2023-01-17T21:53:37.371Z,9.52
2023-01-17T21:56:23.152Z,9.13
2023-01-17T21:58:53.760Z,8.95
2023-01-17T22:01:25.019Z,8.98
2023-01-17T22:03:53.099Z,8.07
2023-01-17T22:06:20.482Z,7.88
2023-01-17T22:08:47.197Z,7.68
2023-01-17T22:11:14.831Z,8.07
2023-01-17T22:13:42.438Z,7.95
2023-01-17T22:16:11.340Z,7.05
2023-01-17T22:18:40.187Z,7.38
2023-01-17T22:21:07.723Z,7.65
2023-01-17T22:23:34.422Z,7.60
2023-01-17T22:26:01.400Z,7.70
2023-01-17T22:28:29.146Z,7.53
2023-01-17T22:30:55.621Z,7.72
2023-01-17T22:33:25.371Z,8.52
2023-01-17T22:36:01.005Z,6.57
2023-01-17T22:38:27.409Z,8.13
2023-01-17T22:40:53.778Z,6.72
2023-01-17T22:43:20.185Z,7.00
2023-01-17T22:45:46.833Z,6.88
2023-01-17T22:48:13.276Z,7.65
2023-01-17T22:50:43.057Z,6.13
2023-01-17T22:53:10.414Z,6.25
2023-01-17T22:55:36.831Z,6.57
2023-01-17T22:58:03.200Z,6.15
2023-01-17T23:00:29.802Z,6.22
2023-01-17T23:02:56.572Z,6.32
2023-01-17T23:05:23.131Z,6.32
2023-01-17T23:07:50.194Z,5.85
2023-01-17T23:10:39.712Z,8.55
2023-01-17T23:13:08.784Z,8.63
2023-01-17T23:15:55.900Z,6.30
2023-01-17T23:18:40.752Z,6.00
2023-01-17T23:21:07.752Z,6.00
2023-01-17T23:23:34.175Z,6.18
2023-01-17T23:26:02.038Z,5.50
2023-01-17T23:28:28.461Z,5.68
2023-01-17T23:31:00.282Z,5.30
2023-01-17T23:33:26.767Z,5.28
2023-01-17T23:35:53.331Z,5.20
2023-01-17T23:38:25.856Z,5.25
2023-01-17T23:41:11.587Z,5.03
2023-01-17T23:46:04.833Z,4.70
2023-01-17T23:48:31.564Z,4.90
2023-01-17T23:50:59.217Z,5.07
2023-01-17T23:53:26.126Z,4.80
2023-01-17T23:55:53.415Z,5.00
2023-01-17T23:58:20.567Z,5.03
